sensor_id;sensor_type;location;lat;lon;timestamp;pressure;altitude;pressure_sealevel;temperature;humidity
61710;BME280;73500;51.494;5.386;2024-02-23T00:01:38;98786.88;;;18.31;43.15
61710;BME280;73500;51.494;5.386;2024-02-23T00:04:03;98798.69;;;18.36;42.84
61710;BME280;73500;51.494;5.386;2024-02-23T00:06:31;98783.00;;;18.19;42.75
61710;BME280;73500;51.494;5.386;2024-02-23T00:08:56;98792.66;;;18.27;43.02
61710;BME280;73500;51.494;5.386;2024-02-23T00:11:23;98797.13;;;18.26;42.94
61710;BME280;73500;51.494;5.386;2024-02-23T00:13:49;98788.09;;;18.21;43.05
61710;BME280;73500;51.494;5.386;2024-02-23T00:16:14;98778.59;;;18.11;42.93
61710;BME280;73500;51.494;5.386;2024-02-23T00:18:39;98786.16;;;18.15;43.00
61710;BME280;73500;51.494;5.386;2024-02-23T00:21:04;98802.75;;;18.23;42.69
61710;BME280;73500;51.494;5.386;2024-02-23T00:23:30;98805.56;;;18.22;42.77
61710;BME280;73500;51.494;5.386;2024-02-23T00:25:56;98818.06;;;18.28;42.83
61710;BME280;73500;51.494;5.386;2024-02-23T00:28:21;98810.84;;;18.22;42.56
61710;BME280;73500;51.494;5.386;2024-02-23T00:30:46;98785.41;;;18.06;42.75
61710;BME280;73500;51.494;5.386;2024-02-23T00:33:11;98794.91;;;18.15;42.49
61710;BME280;73500;51.494;5.386;2024-02-23T00:35:37;98804.91;;;18.20;42.49
61710;BME280;73500;51.494;5.386;2024-02-23T00:38:02;98822.38;;;18.21;42.36
61710;BME280;73500;51.494;5.386;2024-02-23T00:40:27;98829.28;;;18.22;42.54
61710;BME280;73500;51.494;5.386;2024-02-23T00:42:53;98813.69;;;18.12;42.47
61710;BME280;73500;51.494;5.386;2024-02-23T00:45:18;98822.41;;;18.12;42.36
61710;BME280;73500;51.494;5.386;2024-02-23T00:47:44;98817.50;;;18.09;42.22
61710;BME280;73500;51.494;5.386;2024-02-23T00:50:11;98803.72;;;17.99;42.48
61710;BME280;73500;51.494;5.386;2024-02-23T00:52:37;98840.53;;;18.16;42.26
61710;BME280;73500;51.494;5.386;2024-02-23T00:55:02;98828.38;;;18.06;42.34
61710;BME280;73500;51.494;5.386;2024-02-23T00:57:28;98842.19;;;18.08;42.15
61710;BME280;73500;51.494;5.386;2024-02-23T00:59:58;98850.25;;;18.15;42.32
61710;BME280;73500;51.494;5.386;2024-02-23T01:02:23;98841.56;;;18.06;42.30
61710;BME280;73500;51.494;5.386;2024-02-23T01:04:49;98830.09;;;17.99;42.23
61710;BME280;73500;51.494;5.386;2024-02-23T01:07:14;98860.31;;;18.11;41.95
61710;BME280;73500;51.494;5.386;2024-02-23T01:09:39;98859.38;;;18.04;42.10
61710;BME280;73500;51.494;5.386;2024-02-23T01:12:05;98842.25;;;18.00;42.19
61710;BME280;73500;51.494;5.386;2024-02-23T01:14:30;98849.34;;;18.00;42.34
61710;BME280;73500;51.494;5.386;2024-02-23T01:16:55;98865.63;;;18.03;42.18
61710;BME280;73500;51.494;5.386;2024-02-23T01:19:21;98871.38;;;18.07;42.16
61710;BME280;73500;51.494;5.386;2024-02-23T01:21:46;98861.50;;;18.01;41.81
61710;BME280;73500;51.494;5.386;2024-02-23T01:24:11;98874.16;;;18.05;42.25
61710;BME280;73500;51.494;5.386;2024-02-23T01:26:37;98860.56;;;17.93;42.13
61710;BME280;73500;51.494;5.386;2024-02-23T01:29:02;98853.81;;;17.91;42.11
61710;BME280;73500;51.494;5.386;2024-02-23T01:31:28;98866.81;;;17.92;41.65
61710;BME280;73500;51.494;5.386;2024-02-23T01:33:54;98869.94;;;17.96;41.90
61710;BME280;73500;51.494;5.386;2024-02-23T01:36:19;98862.06;;;17.88;41.87
61710;BME280;73500;51.494;5.386;2024-02-23T01:38:45;98874.72;;;17.92;42.03
61710;BME280;73500;51.494;5.386;2024-02-23T01:41:10;98872.09;;;17.92;42.07
61710;BME280;73500;51.494;5.386;2024-02-23T01:43:37;98876.53;;;17.92;41.99
61710;BME280;73500;51.494;5.386;2024-02-23T01:46:03;98884.75;;;17.97;41.87
61710;BME280;73500;51.494;5.386;2024-02-23T01:48:32;98876.84;;;17.97;41.83
61710;BME280;73500;51.494;5.386;2024-02-23T01:50:57;98866.66;;;17.86;42.08
61710;BME280;73500;51.494;5.386;2024-02-23T01:53:24;98882.78;;;17.91;42.03
61710;BME280;73500;51.494;5.386;2024-02-23T01:55:51;98883.47;;;17.93;41.69
61710;BME280;73500;51.494;5.386;2024-02-23T01:58:17;98895.47;;;17.95;41.87
61710;BME280;73500;51.494;5.386;2024-02-23T02:00:43;98858.44;;;17.81;41.99
61710;BME280;73500;51.494;5.386;2024-02-23T02:03:08;98870.63;;;17.90;42.01
61710;BME280;73500;51.494;5.386;2024-02-23T02:05:35;98884.44;;;17.92;41.64
61710;BME280;73500;51.494;5.386;2024-02-23T02:08:01;98874.72;;;17.84;41.97
61710;BME280;73500;51.494;5.386;2024-02-23T02:10:26;98859.44;;;17.80;41.74
61710;BME280;73500;51.494;5.386;2024-02-23T02:12:52;98889.06;;;17.90;41.66
61710;BME280;73500;51.494;5.386;2024-02-23T02:15:18;98889.38;;;17.87;41.66
61710;BME280;73500;51.494;5.386;2024-02-23T02:17:44;98882.47;;;17.86;41.41
61710;BME280;73500;51.494;5.386;2024-02-23T02:20:12;98891.88;;;17.88;41.46
61710;BME280;73500;51.494;5.386;2024-02-23T02:22:38;98875.41;;;17.78;41.48
61710;BME280;73500;51.494;5.386;2024-02-23T02:25:04;98875.22;;;17.80;41.37
61710;BME280;73500;51.494;5.386;2024-02-23T02:27:30;98883.66;;;17.75;41.59
61710;BME280;73500;51.494;5.386;2024-02-23T02:29:55;98898.44;;;17.84;41.39
61710;BME280;73500;51.494;5.386;2024-02-23T02:32:20;98879.06;;;17.77;41.35
61710;BME280;73500;51.494;5.386;2024-02-23T02:34:46;98901.88;;;17.85;41.12
61710;BME280;73500;51.494;5.386;2024-02-23T02:37:11;98915.06;;;17.85;41.32
61710;BME280;73500;51.494;5.386;2024-02-23T02:39:36;98892.91;;;17.71;41.38
61710;BME280;73500;51.494;5.386;2024-02-23T02:42:02;98921.34;;;17.84;41.34
61710;BME280;73500;51.494;5.386;2024-02-23T02:44:27;98899.63;;;17.73;41.11
61710;BME280;73500;51.494;5.386;2024-02-23T02:46:56;98905.06;;;17.72;41.27
61710;BME280;73500;51.494;5.386;2024-02-23T02:49:21;98928.44;;;17.83;41.33
61710;BME280;73500;51.494;5.386;2024-02-23T02:51:46;98923.34;;;17.82;41.38
61710;BME280;73500;51.494;5.386;2024-02-23T02:54:11;98899.31;;;17.68;41.13
61710;BME280;73500;51.494;5.386;2024-02-23T02:56:42;98901.13;;;17.68;41.05
61710;BME280;73500;51.494;5.386;2024-02-23T02:59:07;98918.22;;;17.72;41.31
61710;BME280;73500;51.494;5.386;2024-02-23T03:01:33;98906.22;;;17.69;41.08
61710;BME280;73500;51.494;5.386;2024-02-23T03:03:58;98928.94;;;17.79;41.27
61710;BME280;73500;51.494;5.386;2024-02-23T03:06:24;98926.81;;;17.74;41.29
61710;BME280;73500;51.494;5.386;2024-02-23T03:08:49;98909.38;;;17.65;41.52
61710;BME280;73500;51.494;5.386;2024-02-23T03:11:14;98905.09;;;17.64;41.16
61710;BME280;73500;51.494;5.386;2024-02-23T03:13:39;98911.03;;;17.66;41.36
61710;BME280;73500;51.494;5.386;2024-02-23T03:16:05;98923.34;;;17.73;41.06
61710;BME280;73500;51.494;5.386;2024-02-23T03:18:30;98893.41;;;17.50;41.29
61710;BME280;73500;51.494;5.386;2024-02-23T03:20:55;98919.06;;;17.72;41.24
61710;BME280;73500;51.494;5.386;2024-02-23T03:23:20;98924.84;;;17.68;41.00
61710;BME280;73500;51.494;5.386;2024-02-23T03:25:46;98919.25;;;17.71;40.71
61710;BME280;73500;51.494;5.386;2024-02-23T03:28:11;98926.97;;;17.72;40.99
61710;BME280;73500;51.494;5.386;2024-02-23T03:30:36;98937.69;;;17.71;40.66
61710;BME280;73500;51.494;5.386;2024-02-23T03:33:02;98906.44;;;17.59;40.84
61710;BME280;73500;51.494;5.386;2024-02-23T03:35:27;98929.28;;;17.67;41.09
61710;BME280;73500;51.494;5.386;2024-02-23T03:37:52;98913.66;;;17.57;41.05
61710;BME280;73500;51.494;5.386;2024-02-23T03:40:17;98923.19;;;17.67;40.88
61710;BME280;73500;51.494;5.386;2024-02-23T03:42:45;98915.44;;;17.65;41.10
61710;BME280;73500;51.494;5.386;2024-02-23T03:45:11;98918.75;;;17.59;41.00
61710;BME280;73500;51.494;5.386;2024-02-23T03:47:36;98908.72;;;17.54;40.96
61710;BME280;73500;51.494;5.386;2024-02-23T03:50:01;98920.88;;;17.64;41.03
61710;BME280;73500;51.494;5.386;2024-02-23T03:52:27;98908.88;;;17.53;41.24
61710;BME280;73500;51.494;5.386;2024-02-23T03:54:52;98924.03;;;17.59;40.89
61710;BME280;73500;51.494;5.386;2024-02-23T03:57:19;98911.69;;;17.51;41.00
61710;BME280;73500;51.494;5.386;2024-02-23T03:59:54;98926.50;;;17.61;40.74
61710;BME280;73500;51.494;5.386;2024-02-23T04:02:19;98931.41;;;17.64;40.92
61710;BME280;73500;51.494;5.386;2024-02-23T04:04:45;98932.09;;;17.66;40.74
61710;BME280;73500;51.494;5.386;2024-02-23T04:07:11;98932.28;;;17.64;40.94
61710;BME280;73500;51.494;5.386;2024-02-23T04:09:36;98906.09;;;17.54;40.77
61710;BME280;73500;51.494;5.386;2024-02-23T04:12:01;98923.69;;;17.62;40.80
61710;BME280;73500;51.494;5.386;2024-02-23T04:14:27;98921.56;;;17.57;40.83
61710;BME280;73500;51.494;5.386;2024-02-23T04:16:52;98928.47;;;17.58;40.90
61710;BME280;73500;51.494;5.386;2024-02-23T04:19:17;98928.66;;;17.57;40.92
61710;BME280;73500;51.494;5.386;2024-02-23T04:21:43;98938.38;;;17.56;40.88
61710;BME280;73500;51.494;5.386;2024-02-23T04:24:09;98925.84;;;17.50;40.68
61710;BME280;73500;51.494;5.386;2024-02-23T04:26:34;98945.44;;;17.56;41.01
61710;BME280;73500;51.494;5.386;2024-02-23T04:29:00;98920.78;;;17.40;40.92
61710;BME280;73500;51.494;5.386;2024-02-23T04:31:25;98930.97;;;17.44;41.05
61710;BME280;73500;51.494;5.386;2024-02-23T04:33:51;98940.34;;;17.38;40.75
61710;BME280;73500;51.494;5.386;2024-02-23T04:36:19;98950.06;;;17.46;40.85
61710;BME280;73500;51.494;5.386;2024-02-23T04:38:46;98955.78;;;17.57;40.97
61710;BME280;73500;51.494;5.386;2024-02-23T04:41:11;98930.31;;;17.41;41.12
61710;BME280;73500;51.494;5.386;2024-02-23T04:43:36;98955.47;;;17.52;40.79
61710;BME280;73500;51.494;5.386;2024-02-23T04:46:02;98958.13;;;17.52;40.54
61710;BME280;73500;51.494;5.386;2024-02-23T04:48:27;98949.41;;;17.44;40.78
61710;BME280;73500;51.494;5.386;2024-02-23T04:50:52;98964.72;;;17.48;41.01
61710;BME280;73500;51.494;5.386;2024-02-23T04:53:18;98971.94;;;17.54;40.95
61710;BME280;73500;51.494;5.386;2024-02-23T04:55:44;98945.13;;;17.43;40.95
61710;BME280;73500;51.494;5.386;2024-02-23T04:58:09;98950.22;;;17.44;41.04
61710;BME280;73500;51.494;5.386;2024-02-23T05:00:37;98967.00;;;17.51;40.84
61710;BME280;73500;51.494;5.386;2024-02-23T05:03:02;98964.03;;;17.46;41.20
61710;BME280;73500;51.494;5.386;2024-02-23T05:05:29;98954.84;;;17.42;40.80
61710;BME280;73500;51.494;5.386;2024-02-23T05:07:55;98961.41;;;17.46;40.88
61710;BME280;73500;51.494;5.386;2024-02-23T05:10:20;98952.53;;;17.39;41.06
61710;BME280;73500;51.494;5.386;2024-02-23T05:12:47;98975.91;;;17.50;40.90
61710;BME280;73500;51.494;5.386;2024-02-23T05:15:13;98975.25;;;17.48;40.88
61710;BME280;73500;51.494;5.386;2024-02-23T05:17:38;98969.97;;;17.48;40.99
61710;BME280;73500;51.494;5.386;2024-02-23T05:20:04;98950.88;;;17.30;41.15
61710;BME280;73500;51.494;5.386;2024-02-23T05:22:35;98955.97;;;17.39;41.11
61710;BME280;73500;51.494;5.386;2024-02-23T05:25:01;98957.28;;;17.35;41.18
61710;BME280;73500;51.494;5.386;2024-02-23T05:27:26;98969.16;;;17.48;40.76
61710;BME280;73500;51.494;5.386;2024-02-23T05:29:52;98966.84;;;17.45;41.07
61710;BME280;73500;51.494;5.386;2024-02-23T05:32:18;98968.50;;;17.46;40.78
61710;BME280;73500;51.494;5.386;2024-02-23T05:34:44;98977.03;;;17.48;41.10
61710;BME280;73500;51.494;5.386;2024-02-23T05:37:10;98959.59;;;17.38;40.90
61710;BME280;73500;51.494;5.386;2024-02-23T05:39:35;98957.63;;;17.40;40.95
61710;BME280;73500;51.494;5.386;2024-02-23T05:42:00;98960.75;;;17.44;40.93
61710;BME280;73500;51.494;5.386;2024-02-23T05:44:25;98959.94;;;17.44;40.95
61710;BME280;73500;51.494;5.386;2024-02-23T05:46:51;98936.06;;;17.37;41.03
61710;BME280;73500;51.494;5.386;2024-02-23T05:49:16;98917.63;;;17.29;41.23
61710;BME280;73500;51.494;5.386;2024-02-23T05:51:42;98949.72;;;17.49;41.72
61710;BME280;73500;51.494;5.386;2024-02-23T05:54:08;98949.56;;;17.50;41.92
61710;BME280;73500;51.494;5.386;2024-02-23T05:56:33;98933.44;;;17.45;41.82
61710;BME280;73500;51.494;5.386;2024-02-23T05:58:58;98928.66;;;17.49;42.18
61710;BME280;73500;51.494;5.386;2024-02-23T06:01:24;98926.81;;;17.57;42.42
61710;BME280;73500;51.494;5.386;2024-02-23T06:03:49;98935.06;;;17.54;42.24
61710;BME280;73500;51.494;5.386;2024-02-23T06:06:14;98937.53;;;17.64;42.40
61710;BME280;73500;51.494;5.386;2024-02-23T06:08:39;98916.44;;;17.56;42.23
61710;BME280;73500;51.494;5.386;2024-02-23T06:11:05;98934.53;;;17.67;42.27
61710;BME280;73500;51.494;5.386;2024-02-23T06:13:30;98921.88;;;17.71;42.08
61710;BME280;73500;51.494;5.386;2024-02-23T06:15:56;98929.59;;;17.81;42.26
61710;BME280;73500;51.494;5.386;2024-02-23T06:18:21;98915.28;;;17.67;42.19
61710;BME280;73500;51.494;5.386;2024-02-23T06:20:48;98912.63;;;17.75;42.07
61710;BME280;73500;51.494;5.386;2024-02-23T06:23:14;98885.19;;;17.53;42.10
61710;BME280;73500;51.494;5.386;2024-02-23T06:25:39;98931.25;;;17.82;41.98
61710;BME280;73500;51.494;5.386;2024-02-23T06:28:05;98938.13;;;17.91;42.16
61710;BME280;73500;51.494;5.386;2024-02-23T06:30:31;98938.31;;;17.89;42.04
61710;BME280;73500;51.494;5.386;2024-02-23T06:32:56;98925.59;;;17.85;41.90
61710;BME280;73500;51.494;5.386;2024-02-23T06:35:22;98929.72;;;17.87;41.80
61710;BME280;73500;51.494;5.386;2024-02-23T06:37:47;98913.78;;;17.81;41.92
61710;BME280;73500;51.494;5.386;2024-02-23T06:40:12;98916.72;;;17.86;41.76
61710;BME280;73500;51.494;5.386;2024-02-23T06:42:38;98933.22;;;17.88;41.68
61710;BME280;73500;51.494;5.386;2024-02-23T06:45:03;98936.31;;;18.00;41.71
61710;BME280;73500;51.494;5.386;2024-02-23T06:47:29;98933.50;;;18.01;41.42
61710;BME280;73500;51.494;5.386;2024-02-23T06:49:54;98910.81;;;17.92;41.67
61710;BME280;73500;51.494;5.386;2024-02-23T06:52:19;98933.19;;;18.04;41.75
61710;BME280;73500;51.494;5.386;2024-02-23T06:54:45;98913.28;;;17.93;41.76
61710;BME280;73500;51.494;5.386;2024-02-23T06:57:10;98914.09;;;17.94;41.83
61710;BME280;73500;51.494;5.386;2024-02-23T06:59:35;98931.38;;;17.97;41.61
61710;BME280;73500;51.494;5.386;2024-02-23T07:02:01;98930.56;;;17.96;41.73
61710;BME280;73500;51.494;5.386;2024-02-23T07:04:26;98936.78;;;18.03;41.68
61710;BME280;73500;51.494;5.386;2024-02-23T07:06:52;98947.16;;;18.05;42.09
61710;BME280;73500;51.494;5.386;2024-02-23T07:09:17;98921.66;;;17.97;41.90
61710;BME280;73500;51.494;5.386;2024-02-23T07:11:42;98920.16;;;17.86;41.72
61710;BME280;73500;51.494;5.386;2024-02-23T07:14:09;98935.00;;;17.95;41.83
61710;BME280;73500;51.494;5.386;2024-02-23T07:16:38;98927.75;;;17.98;41.74
61710;BME280;73500;51.494;5.386;2024-02-23T07:19:07;98922.84;;;17.94;41.82
61710;BME280;73500;51.494;5.386;2024-02-23T07:21:32;98923.00;;;17.93;41.76
61710;BME280;73500;51.494;5.386;2024-02-23T07:23:58;98919.34;;;17.94;41.63
61710;BME280;73500;51.494;5.386;2024-02-23T07:26:24;98922.66;;;17.96;41.80
61710;BME280;73500;51.494;5.386;2024-02-23T07:28:49;98941.91;;;18.05;41.96
61710;BME280;73500;51.494;5.386;2024-02-23T07:31:14;98928.09;;;17.94;41.60
61710;BME280;73500;51.494;5.386;2024-02-23T07:33:42;98936.31;;;18.00;41.54
61710;BME280;73500;51.494;5.386;2024-02-23T07:36:07;98921.66;;;17.97;41.20
61710;BME280;73500;51.494;5.386;2024-02-23T07:38:34;98952.91;;;18.08;41.08
61710;BME280;73500;51.494;5.386;2024-02-23T07:40:59;98917.72;;;17.93;41.26
61710;BME280;73500;51.494;5.386;2024-02-23T07:43:24;98946.03;;;18.07;41.47
61710;BME280;73500;51.494;5.386;2024-02-23T07:45:51;98920.03;;;17.96;40.93
61710;BME280;73500;51.494;5.386;2024-02-23T07:48:16;98925.44;;;18.03;41.28
61710;BME280;73500;51.494;5.386;2024-02-23T07:50:42;98920.16;;;18.03;41.17
61710;BME280;73500;51.494;5.386;2024-02-23T07:53:07;98911.13;;;17.97;41.42
61710;BME280;73500;51.494;5.386;2024-02-23T07:55:32;98914.06;;;18.02;41.59
61710;BME280;73500;51.494;5.386;2024-02-23T07:57:58;98920.66;;;17.98;41.48
61710;BME280;73500;51.494;5.386;2024-02-23T08:00:26;98921.28;;;18.08;41.62
61710;BME280;73500;51.494;5.386;2024-02-23T08:02:52;98904.03;;;17.98;41.55
61710;BME280;73500;51.494;5.386;2024-02-23T08:05:17;98920.97;;;18.03;41.54
61710;BME280;73500;51.494;5.386;2024-02-23T08:07:42;98895.63;;;17.94;41.75
61710;BME280;73500;51.494;5.386;2024-02-23T08:10:08;98907.47;;;18.06;42.08
61710;BME280;73500;51.494;5.386;2024-02-23T08:12:34;98917.03;;;18.07;41.79
61710;BME280;73500;51.494;5.386;2024-02-23T08:14:59;98898.41;;;18.01;42.02
61710;BME280;73500;51.494;5.386;2024-02-23T08:17:25;98882.13;;;17.97;42.00
61710;BME280;73500;51.494;5.386;2024-02-23T08:19:51;98904.34;;;18.03;42.04
61710;BME280;73500;51.494;5.386;2024-02-23T08:22:16;98889.84;;;17.99;42.37
61710;BME280;73500;51.494;5.386;2024-02-23T08:24:41;98899.88;;;18.03;42.48
61710;BME280;73500;51.494;5.386;2024-02-23T08:27:06;98908.44;;;18.13;42.40
61710;BME280;73500;51.494;5.386;2024-02-23T08:29:32;98906.31;;;18.09;42.36
61710;BME280;73500;51.494;5.386;2024-02-23T08:31:57;98915.00;;;18.18;42.65
61710;BME280;73500;51.494;5.386;2024-02-23T08:34:22;98908.91;;;18.17;42.76
61710;BME280;73500;51.494;5.386;2024-02-23T08:36:48;98912.69;;;18.15;42.45
61710;BME280;73500;51.494;5.386;2024-02-23T08:39:13;98911.72;;;18.16;42.75
61710;BME280;73500;51.494;5.386;2024-02-23T08:41:38;98884.75;;;17.97;42.55
61710;BME280;73500;51.494;5.386;2024-02-23T08:44:04;98904.78;;;18.15;42.74
61710;BME280;73500;51.494;5.386;2024-02-23T08:46:29;98904.13;;;18.12;42.77
61710;BME280;73500;51.494;5.386;2024-02-23T08:48:55;98895.75;;;18.09;42.67
61710;BME280;73500;51.494;5.386;2024-02-23T08:51:20;98902.00;;;18.08;42.97
61710;BME280;73500;51.494;5.386;2024-02-23T08:53:45;98920.91;;;18.20;42.71
61710;BME280;73500;51.494;5.386;2024-02-23T08:56:11;98902.66;;;18.10;42.59
61710;BME280;73500;51.494;5.386;2024-02-23T08:58:37;98904.94;;;18.13;42.55
61710;BME280;73500;51.494;5.386;2024-02-23T09:01:02;98887.88;;;18.01;42.54
61710;BME280;73500;51.494;5.386;2024-02-23T09:03:29;98913.84;;;18.20;42.67
61710;BME280;73500;51.494;5.386;2024-02-23T09:05:54;98917.63;;;18.18;42.79
61710;BME280;73500;51.494;5.386;2024-02-23T09:08:20;98915.31;;;18.15;42.69
61710;BME280;73500;51.494;5.386;2024-02-23T09:10:45;98917.63;;;18.18;42.94
61710;BME280;73500;51.494;5.386;2024-02-23T09:13:11;98928.81;;;18.20;42.79
61710;BME280;73500;51.494;5.386;2024-02-23T09:15:36;98920.25;;;18.18;43.19
61710;BME280;73500;51.494;5.386;2024-02-23T09:18:01;98909.75;;;18.09;42.78
61710;BME280;73500;51.494;5.386;2024-02-23T09:20:27;98923.53;;;18.20;42.80
61710;BME280;73500;51.494;5.386;2024-02-23T09:22:52;98909.13;;;18.07;42.83
61710;BME280;73500;51.494;5.386;2024-02-23T09:25:18;98911.25;;;18.12;42.85
61710;BME280;73500;51.494;5.386;2024-02-23T09:27:43;98928.63;;;18.21;42.87
61710;BME280;73500;51.494;5.386;2024-02-23T09:30:13;98923.06;;;18.16;42.52
61710;BME280;73500;51.494;5.386;2024-02-23T09:32:38;98917.97;;;18.15;42.36
61710;BME280;73500;51.494;5.386;2024-02-23T09:35:04;98936.38;;;18.23;42.31
61710;BME280;73500;51.494;5.386;2024-02-23T09:37:29;98916.16;;;18.15;42.56
61710;BME280;73500;51.494;5.386;2024-02-23T09:39:54;98909.59;;;18.11;42.58
61710;BME280;73500;51.494;5.386;2024-02-23T09:42:22;98929.78;;;18.27;42.69
61710;BME280;73500;51.494;5.386;2024-02-23T09:45:00;98929.31;;;18.23;42.50
61710;BME280;73500;51.494;5.386;2024-02-23T09:47:27;98918.97;;;18.13;42.47
61710;BME280;73500;51.494;5.386;2024-02-23T09:49:53;98904.78;;;18.15;42.46
61710;BME280;73500;51.494;5.386;2024-02-23T09:52:20;98931.44;;;18.20;42.25
61710;BME280;73500;51.494;5.386;2024-02-23T09:54:46;98948.91;;;18.21;42.34
61710;BME280;73500;51.494;5.386;2024-02-23T09:57:11;98953.03;;;18.23;42.19
61710;BME280;73500;51.494;5.386;2024-02-23T09:59:37;98933.31;;;18.11;42.34
61710;BME280;73500;51.494;5.386;2024-02-23T10:02:09;98944.50;;;18.13;42.49
61710;BME280;73500;51.494;5.386;2024-02-23T10:04:39;98929.88;;;18.10;42.15
61710;BME280;73500;51.494;5.386;2024-02-23T10:07:06;98955.00;;;18.21;42.21
61710;BME280;73500;51.494;5.386;2024-02-23T10:09:32;98952.53;;;18.20;42.15
61710;BME280;73500;51.494;5.386;2024-02-23T10:11:57;98927.41;;;18.09;41.81
61710;BME280;73500;51.494;5.386;2024-02-23T10:14:22;98948.16;;;18.12;41.92
61710;BME280;73500;51.494;5.386;2024-02-23T10:16:48;98955.53;;;18.17;42.16
61710;BME280;73500;51.494;5.386;2024-02-23T10:19:18;98926.59;;;18.00;42.01
61710;BME280;73500;51.494;5.386;2024-02-23T10:21:45;98946.78;;;18.16;42.11
61710;BME280;73500;51.494;5.386;2024-02-23T10:24:10;98934.63;;;18.07;41.96
61710;BME280;73500;51.494;5.386;2024-02-23T10:26:35;98952.25;;;18.15;42.27
61710;BME280;73500;51.494;5.386;2024-02-23T10:29:01;98963.94;;;18.20;42.29
61710;BME280;73500;51.494;5.386;2024-02-23T10:31:27;98939.72;;;18.08;42.31
61710;BME280;73500;51.494;5.386;2024-02-23T10:33:54;98941.72;;;18.06;42.18
61710;BME280;73500;51.494;5.386;2024-02-23T10:36:22;98973.50;;;18.13;42.06
61710;BME280;73500;51.494;5.386;2024-02-23T10:38:52;98963.63;;;18.15;42.28
61710;BME280;73500;51.494;5.386;2024-02-23T10:41:22;98966.25;;;18.15;42.28
61710;BME280;73500;51.494;5.386;2024-02-23T10:43:48;98980.91;;;18.18;42.37
61710;BME280;73500;51.494;5.386;2024-02-23T10:46:14;98965.75;;;18.11;42.19
61710;BME280;73500;51.494;5.386;2024-02-23T10:48:44;99002.47;;;18.21;42.29
61710;BME280;73500;51.494;5.386;2024-02-23T10:51:12;98974.84;;;18.01;42.47
61710;BME280;73500;51.494;5.386;2024-02-23T10:53:39;98986.19;;;18.09;42.70
61710;BME280;73500;51.494;5.386;2024-02-23T10:56:06;98980.13;;;18.09;42.54
61710;BME280;73500;51.494;5.386;2024-02-23T10:58:32;99000.16;;;18.18;42.46
61710;BME280;73500;51.494;5.386;2024-02-23T11:01:01;98992.97;;;18.12;42.61
61710;BME280;73500;51.494;5.386;2024-02-23T11:03:29;99009.91;;;18.18;42.45
61710;BME280;73500;51.494;5.386;2024-02-23T11:05:55;99016.50;;;18.22;42.65
61710;BME280;73500;51.494;5.386;2024-02-23T11:08:20;99003.81;;;18.17;42.73
61710;BME280;73500;51.494;5.386;2024-02-23T11:10:50;98988.03;;;18.09;42.73
61710;BME280;73500;51.494;5.386;2024-02-23T11:13:18;99003.97;;;18.16;42.76
61710;BME280;73500;51.494;5.386;2024-02-23T11:15:44;99003.97;;;18.16;42.48
61710;BME280;73500;51.494;5.386;2024-02-23T11:18:22;99016.66;;;18.20;42.49
61710;BME280;73500;51.494;5.386;2024-02-23T11:20:55;98983.72;;;18.08;42.66
61710;BME280;73500;51.494;5.386;2024-02-23T11:23:22;98994.75;;;18.11;42.58
61710;BME280;73500;51.494;5.386;2024-02-23T11:28:28;98989.81;;;18.08;42.85
61710;BME280;73500;51.494;5.386;2024-02-23T11:30:53;99014.84;;;18.21;42.54
61710;BME280;73500;51.494;5.386;2024-02-23T11:33:26;99019.28;;;18.20;42.52
61710;BME280;73500;51.494;5.386;2024-02-23T11:35:51;98991.31;;;18.11;42.44
61710;BME280;73500;51.494;5.386;2024-02-23T11:38:18;99023.09;;;18.18;42.63
61710;BME280;73500;51.494;5.386;2024-02-23T11:40:46;99007.91;;;18.20;42.85
61710;BME280;73500;51.494;5.386;2024-02-23T11:43:13;99023.72;;;18.20;42.57
61710;BME280;73500;51.494;5.386;2024-02-23T11:45:40;99033.94;;;18.23;42.74
61710;BME280;73500;51.494;5.386;2024-02-23T11:48:06;99016.00;;;18.10;42.54
61710;BME280;73500;51.494;5.386;2024-02-23T11:50:32;99017.34;;;18.14;42.87
61710;BME280;73500;51.494;5.386;2024-02-23T11:52:57;99008.78;;;18.12;42.76
61710;BME280;73500;51.494;5.386;2024-02-23T11:55:23;99015.84;;;18.11;42.72
61710;BME280;73500;51.494;5.386;2024-02-23T11:57:48;99035.28;;;18.19;42.73
61710;BME280;73500;51.494;5.386;2024-02-23T12:00:14;99047.28;;;18.21;42.67
61710;BME280;73500;51.494;5.386;2024-02-23T12:02:40;99027.41;;;18.10;42.93
61710;BME280;73500;51.494;5.386;2024-02-23T12:05:06;99043.84;;;18.21;42.71
61710;BME280;73500;51.494;5.386;2024-02-23T12:07:32;99039.91;;;18.17;42.69
61710;BME280;73500;51.494;5.386;2024-02-23T12:09:58;99043.19;;;18.19;42.89
61710;BME280;73500;51.494;5.386;2024-02-23T12:12:25;99028.69;;;18.15;42.75
61710;BME280;73500;51.494;5.386;2024-02-23T12:14:51;99053.06;;;18.25;42.70
61710;BME280;73500;51.494;5.386;2024-02-23T12:17:16;99020.31;;;18.11;42.91
61710;BME280;73500;51.494;5.386;2024-02-23T12:19:42;99040.06;;;18.23;42.70
61710;BME280;73500;51.494;5.386;2024-02-23T12:22:07;99023.91;;;18.10;42.93
61710;BME280;73500;51.494;5.386;2024-02-23T12:24:34;99040.06;;;18.23;43.00
61710;BME280;73500;51.494;5.386;2024-02-23T12:26:59;99040.56;;;18.19;42.80
61710;BME280;73500;51.494;5.386;2024-02-23T12:29:25;99045.50;;;18.22;43.04
61710;BME280;73500;51.494;5.386;2024-02-23T12:31:50;99032.97;;;18.24;42.96
61710;BME280;73500;51.494;5.386;2024-02-23T12:34:16;99023.91;;;18.10;43.07
61710;BME280;73500;51.494;5.386;2024-02-23T12:36:42;99032.97;;;18.16;42.89
61710;BME280;73500;51.494;5.386;2024-02-23T12:39:08;99037.41;;;18.23;43.07
61710;BME280;73500;51.494;5.386;2024-02-23T12:41:33;99032.81;;;18.17;43.14
61710;BME280;73500;51.494;5.386;2024-02-23T12:43:58;99044.31;;;18.24;43.13
61710;BME280;73500;51.494;5.386;2024-02-23T12:46:24;99038.56;;;18.21;43.00
61710;BME280;73500;51.494;5.386;2024-02-23T12:48:50;99041.19;;;18.21;43.07
61710;BME280;73500;51.494;5.386;2024-02-23T12:51:15;99035.44;;;18.17;43.08
61710;BME280;73500;51.494;5.386;2024-02-23T12:53:42;99058.34;;;18.25;42.97
61710;BME280;73500;51.494;5.386;2024-02-23T12:56:13;99044.31;;;18.24;43.02